createdAt,value
2023-05-15T00:01:10.892Z,3.60
2023-05-15T00:03:38.399Z,3.43
2023-05-15T00:06:06.281Z,3.37
2023-05-15T00:08:33.784Z,3.20
2023-05-15T00:11:02.181Z,3.40
2023-05-15T00:13:31.157Z,3.30
2023-05-15T00:15:58.688Z,3.37
2023-05-15T00:18:26.265Z,3.43
2023-05-15T00:20:53.829Z,3.40
2023-05-15T00:23:21.253Z,3.43
2023-05-15T00:25:48.789Z,3.30
2023-05-15T00:28:16.376Z,3.17
2023-05-15T00:30:45.146Z,3.70
2023-05-15T00:33:12.511Z,3.27
2023-05-15T00:35:39.957Z,3.60
2023-05-15T00:38:07.965Z,3.40
2023-05-15T00:40:35.967Z,3.83
2023-05-15T00:43:03.744Z,3.93
2023-05-15T00:45:31.323Z,3.77
2023-05-15T00:48:01.916Z,3.50
2023-05-15T00:50:30.181Z,3.67
2023-05-15T00:52:58.219Z,3.80
2023-05-15T00:55:27.238Z,3.40
2023-05-15T00:57:55.354Z,3.20
2023-05-15T01:00:22.926Z,3.40
2023-05-15T01:02:50.682Z,3.47
2023-05-15T01:05:19.593Z,3.47
2023-05-15T01:07:50.471Z,3.50
2023-05-15T01:10:18.929Z,3.60
2023-05-15T01:12:47.229Z,3.60
2023-05-15T01:15:14.648Z,3.40
2023-05-15T01:17:42.181Z,3.77
2023-05-15T01:20:12.064Z,3.50
2023-05-15T01:22:46.136Z,3.37
2023-05-15T01:25:26.626Z,3.70
2023-05-15T01:27:57.829Z,3.80
2023-05-15T01:30:28.333Z,3.70
2023-05-15T01:32:58.331Z,3.47
2023-05-15T01:35:29.816Z,3.40
2023-05-15T01:38:03.408Z,3.50
2023-05-15T01:40:30.917Z,2.97
2023-05-15T01:43:12.713Z,3.37
2023-05-15T01:45:41.347Z,3.23
2023-05-15T01:48:09.669Z,3.50
2023-05-15T01:50:39.448Z,3.80
2023-05-15T01:53:08.636Z,3.77
2023-05-15T01:55:36.073Z,3.33
2023-05-15T01:58:05.555Z,3.60
2023-05-15T02:00:33.807Z,3.30
2023-05-15T02:03:01.990Z,3.40
2023-05-15T02:05:30.370Z,3.30
2023-05-15T02:07:57.850Z,3.43
2023-05-15T02:10:26.446Z,4.47
2023-05-15T02:12:54.505Z,3.33
2023-05-15T02:15:24.197Z,3.50
2023-05-15T02:17:51.878Z,3.90
2023-05-15T02:20:19.483Z,3.97
2023-05-15T02:22:47.301Z,3.63
2023-05-15T02:25:14.740Z,3.37
2023-05-15T02:27:47.374Z,3.77
2023-05-15T02:30:21.235Z,3.33
2023-05-15T02:32:52.067Z,3.47
2023-05-15T02:35:21.751Z,3.80
2023-05-15T02:37:53.421Z,3.47
2023-05-15T02:40:21.337Z,3.40
2023-05-15T02:42:48.852Z,3.77
2023-05-15T02:45:17.342Z,3.97
2023-05-15T02:47:45.042Z,3.80
2023-05-15T02:50:13.952Z,4.00
2023-05-15T02:52:41.357Z,3.53
2023-05-15T02:55:09.454Z,3.43
2023-05-15T02:57:36.877Z,3.90
2023-05-15T03:00:06.571Z,3.87
2023-05-15T03:02:34.014Z,3.63
2023-05-15T03:05:01.453Z,3.67
2023-05-15T03:07:30.259Z,3.97
2023-05-15T03:09:57.702Z,3.77
2023-05-15T03:12:25.184Z,4.13
2023-05-15T03:14:52.630Z,3.60
2023-05-15T03:17:20.064Z,4.03
2023-05-15T03:19:47.500Z,3.50
2023-05-15T03:22:15.249Z,5.03
2023-05-15T03:24:44.064Z,4.00
2023-05-15T03:27:11.503Z,3.90
2023-05-15T03:29:39.333Z,3.80
2023-05-15T03:32:07.055Z,3.87
2023-05-15T03:34:34.530Z,4.37
2023-05-15T03:37:01.926Z,4.40
2023-05-15T03:39:29.355Z,4.77
2023-05-15T03:41:58.210Z,4.60
2023-05-15T03:44:25.750Z,4.33
2023-05-15T03:46:53.255Z,4.50
2023-05-15T03:49:20.669Z,5.80
2023-05-15T03:51:48.187Z,5.50
2023-05-15T03:54:15.579Z,6.60
2023-05-15T03:56:43.181Z,7.50
2023-05-15T03:59:11.998Z,7.83
2023-05-15T04:01:50.305Z,7.47
2023-05-15T04:04:26.873Z,8.43
2023-05-15T04:06:54.329Z,9.30
2023-05-15T04:09:21.738Z,10.10
2023-05-15T04:11:49.204Z,11.10
2023-05-15T04:14:17.976Z,12.23
2023-05-15T04:16:45.789Z,14.57
2023-05-15T04:19:13.312Z,18.07
2023-05-15T04:21:40.818Z,20.00
2023-05-15T04:24:09.202Z,20.17
2023-05-15T04:26:36.666Z,19.70
2023-05-15T04:29:04.874Z,19.80
2023-05-15T04:31:34.823Z,19.70
2023-05-15T04:34:03.908Z,20.17
2023-05-15T04:36:31.731Z,20.90
2023-05-15T04:38:59.150Z,20.20
2023-05-15T04:41:26.696Z,19.53
2023-05-15T04:43:54.142Z,19.47
2023-05-15T04:46:21.780Z,21.00
2023-05-15T04:48:50.782Z,20.23
2023-05-15T04:51:18.262Z,19.73
2023-05-15T04:53:45.719Z,21.77
2023-05-15T04:56:13.149Z,21.70
2023-05-15T04:58:40.558Z,23.20
2023-05-15T05:01:08.171Z,21.70
2023-05-15T05:03:35.718Z,21.80
2023-05-15T05:06:04.552Z,21.33
2023-05-15T05:08:32.054Z,23.93
2023-05-15T05:10:59.466Z,24.23
2023-05-15T05:13:27.022Z,26.40
2023-05-15T05:15:54.460Z,25.90
2023-05-15T05:18:21.950Z,26.57
2023-05-15T05:20:50.480Z,27.83
2023-05-15T05:23:19.291Z,26.20
2023-05-15T05:25:46.704Z,25.27
2023-05-15T05:28:14.424Z,24.83
2023-05-15T05:30:45.305Z,26.33
2023-05-15T05:33:12.704Z,26.60
2023-05-15T05:35:40.282Z,28.23
2023-05-15T05:38:07.850Z,27.87
2023-05-15T05:40:38.043Z,26.93
2023-05-15T05:43:05.580Z,26.93
2023-05-15T05:45:33.095Z,28.60
2023-05-15T05:48:00.544Z,28.17
2023-05-15T05:50:28.128Z,27.17
2023-05-15T05:52:55.597Z,28.00
2023-05-15T05:55:23.307Z,27.57
2023-05-15T05:57:52.329Z,27.50
2023-05-15T06:00:20.478Z,27.80
2023-05-15T06:02:48.105Z,28.93
2023-05-15T06:05:15.831Z,27.00
2023-05-15T06:07:43.245Z,28.13
2023-05-15T06:10:10.997Z,27.77
2023-05-15T06:12:38.377Z,28.43
2023-05-15T06:15:08.322Z,27.93
2023-05-15T06:17:35.801Z,27.70
2023-05-15T06:20:05.052Z,26.77
2023-05-15T06:22:33.070Z,26.73
2023-05-15T06:25:00.619Z,27.60
2023-05-15T06:27:28.176Z,28.57
2023-05-15T06:29:55.677Z,28.37
2023-05-15T06:32:24.534Z,29.70
2023-05-15T06:34:52.004Z,32.10
2023-05-15T06:37:19.401Z,30.77
2023-05-15T06:39:46.913Z,30.10
2023-05-15T06:42:15.173Z,26.90
2023-05-15T06:44:42.679Z,24.80
2023-05-15T06:47:10.367Z,26.40
2023-05-15T06:49:39.264Z,25.87
2023-05-15T06:52:07.196Z,24.67
2023-05-15T06:54:34.624Z,24.43
2023-05-15T06:57:02.032Z,25.00
2023-05-15T06:59:29.608Z,23.60
2023-05-15T07:01:57.173Z,22.83
2023-05-15T07:04:24.710Z,23.97
2023-05-15T07:06:53.454Z,25.90
2023-05-15T07:09:20.913Z,27.90
2023-05-15T07:11:48.330Z,27.27
2023-05-15T07:14:15.728Z,26.53
2023-05-15T07:16:43.238Z,26.43
2023-05-15T07:19:10.838Z,26.57
2023-05-15T07:21:38.340Z,25.27
2023-05-15T07:24:07.455Z,24.97
2023-05-15T07:26:43.632Z,25.07
2023-05-15T07:29:17.959Z,24.37
2023-05-15T07:31:45.634Z,24.30
2023-05-15T07:34:13.108Z,24.77
2023-05-15T07:36:40.913Z,26.30
2023-05-15T07:39:09.746Z,27.80
2023-05-15T07:41:37.268Z,27.83
2023-05-15T07:44:04.761Z,27.07
2023-05-15T07:46:32.356Z,27.40
2023-05-15T07:49:03.176Z,26.90
2023-05-15T07:51:30.654Z,26.37
2023-05-15T07:53:58.063Z,27.23
2023-05-15T07:56:27.093Z,28.40
2023-05-15T07:58:54.628Z,25.70
2023-05-15T08:01:22.012Z,25.50
2023-05-15T08:03:49.701Z,26.57
2023-05-15T08:06:17.249Z,26.87
2023-05-15T08:08:44.604Z,27.20
2023-05-15T08:11:12.008Z,27.60
2023-05-15T08:13:40.775Z,27.23
2023-05-15T08:16:08.278Z,26.00
2023-05-15T08:18:35.878Z,24.70
2023-05-15T08:21:04.753Z,27.17
2023-05-15T08:23:32.277Z,25.97
2023-05-15T08:25:59.843Z,25.50
2023-05-15T08:28:27.284Z,28.47
2023-05-15T08:30:56.113Z,27.40
2023-05-15T08:33:25.358Z,30.43
2023-05-15T08:35:53.392Z,30.60
2023-05-15T08:38:20.877Z,29.30
2023-05-15T08:40:50.521Z,32.60
2023-05-15T08:43:18.742Z,31.77
2023-05-15T08:45:46.261Z,27.70
2023-05-15T08:48:17.808Z,29.50
2023-05-15T08:50:45.854Z,28.80
2023-05-15T08:53:13.567Z,27.50
2023-05-15T08:55:41.537Z,27.57
2023-05-15T08:58:09.178Z,28.03
2023-05-15T09:00:37.493Z,27.87
2023-05-15T09:03:05.207Z,27.87
2023-05-15T09:05:34.120Z,27.50
2023-05-15T09:08:05.313Z,28.00
2023-05-15T09:10:32.890Z,28.50
2023-05-15T09:13:00.575Z,28.93
2023-05-15T09:15:29.119Z,29.30
2023-05-15T09:17:57.115Z,30.30
2023-05-15T09:20:29.083Z,29.13
2023-05-15T09:22:58.026Z,28.80
2023-05-15T09:25:38.578Z,27.70
2023-05-15T09:28:06.338Z,26.67
2023-05-15T09:30:34.728Z,28.60
2023-05-15T09:33:03.761Z,29.07
2023-05-15T09:35:35.057Z,29.37
2023-05-15T09:38:04.376Z,28.50
2023-05-15T09:40:32.510Z,28.43
2023-05-15T09:43:00.454Z,29.70
2023-05-15T09:45:29.960Z,31.73
2023-05-15T09:47:58.381Z,31.50
2023-05-15T09:50:32.854Z,28.90
2023-05-15T09:53:00.984Z,27.40
2023-05-15T09:55:32.130Z,28.63
2023-05-15T09:58:06.585Z,27.40
2023-05-15T10:00:34.188Z,28.17
2023-05-15T10:03:02.533Z,25.77
2023-05-15T10:05:42.507Z,25.40
2023-05-15T10:08:10.734Z,26.03
2023-05-15T10:10:39.598Z,25.90
2023-05-15T10:13:08.261Z,28.00
2023-05-15T10:15:36.158Z,26.40
2023-05-15T10:18:05.077Z,24.40
2023-05-15T10:20:35.332Z,23.70
2023-05-15T10:23:05.255Z,21.37
2023-05-15T10:25:36.344Z,21.90
2023-05-15T10:28:09.408Z,22.87
2023-05-15T10:30:37.294Z,23.00
2023-05-15T10:33:05.451Z,21.87
2023-05-15T10:35:33.230Z,20.77
2023-05-15T10:38:01.173Z,21.87
2023-05-15T10:40:29.302Z,20.20
2023-05-15T10:42:58.719Z,19.63
2023-05-15T10:45:27.857Z,18.90
2023-05-15T10:47:55.437Z,19.30
2023-05-15T10:50:23.256Z,19.50
2023-05-15T10:52:52.149Z,19.20
2023-05-15T10:55:19.698Z,19.60
2023-05-15T10:57:47.873Z,18.10
2023-05-15T11:00:31.422Z,17.57
2023-05-15T11:02:59.418Z,16.93
2023-05-15T11:05:27.092Z,17.20
2023-05-15T11:08:13.354Z,16.20
2023-05-15T11:10:41.404Z,15.60
2023-05-15T11:13:08.843Z,15.90
2023-05-15T11:15:43.895Z,15.10
2023-05-15T11:18:11.545Z,15.30
2023-05-15T11:20:41.744Z,14.53
2023-05-15T11:23:09.477Z,14.90
2023-05-15T11:25:37.544Z,14.13
2023-05-15T11:28:05.619Z,12.40
2023-05-15T11:30:37.706Z,13.40
2023-05-15T11:33:09.490Z,13.60
2023-05-15T11:35:38.695Z,14.60
2023-05-15T11:38:12.313Z,13.07
2023-05-15T11:40:46.590Z,16.60
2023-05-15T11:43:18.979Z,13.67
2023-05-15T11:45:47.709Z,12.77
2023-05-15T11:48:17.781Z,12.73
2023-05-15T11:50:46.321Z,12.17
2023-05-15T11:53:14.002Z,12.50
2023-05-15T11:55:43.580Z,11.97
2023-05-15T11:58:15.160Z,12.10
2023-05-15T12:00:42.988Z,10.50
2023-05-15T12:03:19.329Z,7.33
2023-05-15T12:05:57.620Z,7.30
2023-05-15T12:08:26.284Z,7.77
2023-05-15T12:10:53.822Z,7.83
2023-05-15T12:13:21.230Z,9.00
2023-05-15T12:15:48.700Z,9.47
2023-05-15T12:18:16.120Z,7.97
2023-05-15T12:20:46.775Z,9.50
2023-05-15T12:23:15.999Z,7.43
2023-05-15T12:25:44.496Z,8.23
2023-05-15T12:28:12.755Z,7.93
2023-05-15T12:30:40.782Z,8.90
2023-05-15T12:33:09.497Z,8.80
2023-05-15T12:35:37.438Z,9.67
2023-05-15T12:38:06.450Z,8.03
2023-05-15T12:40:34.334Z,9.90
2023-05-15T12:43:05.913Z,10.13
2023-05-15T12:45:35.307Z,9.03
2023-05-15T12:48:03.369Z,9.10
2023-05-15T12:50:33.135Z,9.43
2023-05-15T12:53:02.380Z,9.00
2023-05-15T12:55:32.483Z,8.43
2023-05-15T12:58:02.091Z,8.77
2023-05-15T13:00:30.092Z,7.73
2023-05-15T13:02:58.139Z,8.70
2023-05-15T13:05:25.899Z,8.70
2023-05-15T13:07:53.523Z,9.33
2023-05-15T13:10:22.099Z,8.90
2023-05-15T13:12:51.731Z,8.00
2023-05-15T13:15:30.501Z,7.10
2023-05-15T13:18:01.423Z,7.10
2023-05-15T13:20:29.406Z,6.33
2023-05-15T13:22:56.993Z,5.77
2023-05-15T13:25:24.473Z,5.27
2023-05-15T13:27:53.868Z,6.03
2023-05-15T13:30:21.451Z,6.50
2023-05-15T13:32:48.953Z,7.50
2023-05-15T13:35:16.423Z,7.13
2023-05-15T13:37:43.990Z,7.13
2023-05-15T13:40:12.866Z,7.30
2023-05-15T13:42:40.977Z,7.43
2023-05-15T13:45:10.596Z,6.93
2023-05-15T13:47:39.351Z,7.83
2023-05-15T13:50:07.491Z,7.80
2023-05-15T13:52:34.917Z,7.73
2023-05-15T13:55:02.515Z,7.37
2023-05-15T13:57:30.078Z,8.20
2023-05-15T13:59:57.511Z,7.97
2023-05-15T14:02:27.125Z,7.83
2023-05-15T14:04:54.582Z,7.87
2023-05-15T14:07:22.936Z,7.80
2023-05-15T14:09:50.609Z,7.00
2023-05-15T14:12:18.052Z,7.03
2023-05-15T14:14:46.481Z,7.10
2023-05-15T14:17:14.865Z,7.20
2023-05-15T14:19:44.012Z,7.40
2023-05-15T14:22:11.453Z,8.53
2023-05-15T14:24:39.305Z,7.57
2023-05-15T14:27:06.775Z,7.53
2023-05-15T14:29:34.238Z,8.37
2023-05-15T14:32:01.823Z,7.50
2023-05-15T14:34:30.777Z,6.60
2023-05-15T14:36:59.481Z,6.30
2023-05-15T14:39:27.062Z,6.57
2023-05-15T14:41:54.503Z,5.93
2023-05-15T14:44:21.910Z,6.07
2023-05-15T14:46:49.358Z,5.67
2023-05-15T14:49:16.757Z,5.90
2023-05-15T14:51:44.149Z,6.20
2023-05-15T14:54:12.964Z,7.73
2023-05-15T14:56:40.487Z,9.57
2023-05-15T14:59:07.963Z,8.93
2023-05-15T15:01:35.335Z,10.27
2023-05-15T15:04:02.842Z,9.80
2023-05-15T15:06:31.782Z,10.60
2023-05-15T15:08:59.437Z,10.50
2023-05-15T15:11:28.164Z,10.70
2023-05-15T15:13:55.618Z,11.07
2023-05-15T15:16:23.151Z,12.37
2023-05-15T15:18:50.670Z,11.27
2023-05-15T15:21:18.108Z,10.40
2023-05-15T15:23:45.893Z,10.47
2023-05-15T15:26:13.383Z,10.53
2023-05-15T15:28:42.165Z,10.50
2023-05-15T15:31:10.659Z,10.50
2023-05-15T15:33:38.376Z,10.17
2023-05-15T15:36:06.139Z,9.83
2023-05-15T15:38:33.543Z,8.90
2023-05-15T15:41:03.099Z,8.60
2023-05-15T15:43:30.645Z,8.20
2023-05-15T15:45:59.523Z,7.97
2023-05-15T15:48:26.983Z,8.10
2023-05-15T15:50:54.369Z,7.90
2023-05-15T15:53:22.321Z,6.90
2023-05-15T15:55:49.693Z,7.10
2023-05-15T15:58:17.130Z,7.73
2023-05-15T16:00:44.569Z,7.57
2023-05-15T16:03:13.528Z,8.40
2023-05-15T16:05:41.100Z,8.53
2023-05-15T16:08:08.529Z,10.10
2023-05-15T16:10:36.246Z,10.00
2023-05-15T16:13:03.764Z,9.70
2023-05-15T16:15:31.232Z,10.40
2023-05-15T16:17:59.512Z,9.60
2023-05-15T16:20:28.451Z,9.73
2023-05-15T16:22:56.101Z,10.90
2023-05-15T16:25:23.649Z,11.10
2023-05-15T16:27:51.141Z,10.50
2023-05-15T16:30:18.558Z,10.27
2023-05-15T16:32:46.315Z,11.20
2023-05-15T16:35:13.763Z,10.47
2023-05-15T16:37:42.585Z,10.13
2023-05-15T16:40:10.433Z,10.00
2023-05-15T16:42:38.712Z,10.40
2023-05-15T16:45:06.834Z,9.70
2023-05-15T16:47:34.554Z,9.90
2023-05-15T16:50:02.030Z,9.23
2023-05-15T16:52:29.437Z,7.53
2023-05-15T16:54:58.271Z,9.43
2023-05-15T16:57:26.114Z,10.03
2023-05-15T16:59:53.529Z,10.00
2023-05-15T17:02:20.960Z,9.23
2023-05-15T17:04:48.385Z,10.20
2023-05-15T17:07:15.840Z,10.90
2023-05-15T17:09:44.526Z,10.00
2023-05-15T17:12:13.364Z,9.80
2023-05-15T17:14:40.827Z,11.10
2023-05-15T17:17:08.291Z,10.93
2023-05-15T17:19:35.878Z,11.30
2023-05-15T17:22:03.379Z,10.83
2023-05-15T17:24:42.644Z,11.47
2023-05-15T17:27:19.485Z,11.30
2023-05-15T17:29:47.315Z,12.53
2023-05-15T17:32:16.081Z,12.10
2023-05-15T17:34:43.658Z,10.80
2023-05-15T17:37:11.421Z,11.20
2023-05-15T17:39:39.110Z,10.60
2023-05-15T17:42:06.730Z,10.23
2023-05-15T17:44:35.552Z,10.70
2023-05-15T17:47:03.057Z,10.03
2023-05-15T17:49:30.564Z,10.73
2023-05-15T17:51:57.975Z,9.97
2023-05-15T17:54:25.528Z,10.53
2023-05-15T17:56:52.938Z,10.00
2023-05-15T17:59:20.388Z,10.90
2023-05-15T18:01:49.223Z,12.17
2023-05-15T18:04:16.709Z,11.23
2023-05-15T18:06:44.263Z,12.40
2023-05-15T18:09:11.894Z,12.60
2023-05-15T18:11:39.321Z,12.10
2023-05-15T18:14:06.754Z,12.33
2023-05-15T18:16:34.244Z,10.80
2023-05-15T18:19:02.983Z,12.23
2023-05-15T18:21:30.570Z,10.43
2023-05-15T18:23:58.247Z,10.97
2023-05-15T18:26:28.996Z,11.40
2023-05-15T18:28:56.860Z,10.60
2023-05-15T18:31:24.332Z,11.30
2023-05-15T18:33:51.754Z,11.13
2023-05-15T18:36:20.524Z,11.33
2023-05-15T18:38:47.937Z,11.17
2023-05-15T18:41:15.450Z,11.30
2023-05-15T18:43:42.979Z,12.70
2023-05-15T18:46:10.478Z,14.40
2023-05-15T18:48:37.891Z,13.50
2023-05-15T18:51:05.303Z,15.47
2023-05-15T18:53:34.285Z,13.60
2023-05-15T18:56:01.692Z,13.50
2023-05-15T18:58:29.132Z,13.33
2023-05-15T19:00:57.018Z,13.50
2023-05-15T19:03:25.777Z,13.23
2023-05-15T19:05:53.562Z,13.20
2023-05-15T19:08:20.963Z,12.30
2023-05-15T19:10:50.201Z,11.70
2023-05-15T19:13:17.719Z,10.90
2023-05-15T19:15:51.049Z,10.60
2023-05-15T19:18:18.506Z,10.00
2023-05-15T19:20:49.538Z,9.27
2023-05-15T19:23:17.331Z,8.77
2023-05-15T19:25:45.072Z,9.37
2023-05-15T19:28:14.896Z,8.77
2023-05-15T19:30:42.604Z,9.57
2023-05-15T19:33:10.236Z,8.50
2023-05-15T19:35:37.911Z,9.20
2023-05-15T19:38:05.377Z,9.37
2023-05-15T19:40:32.874Z,8.70
2023-05-15T19:43:00.349Z,8.70
2023-05-15T19:45:29.536Z,6.90
2023-05-15T19:47:57.012Z,7.47
2023-05-15T19:50:24.542Z,8.00
2023-05-15T19:52:52.333Z,7.50
2023-05-15T19:55:20.021Z,6.80
2023-05-15T19:57:47.537Z,6.90
2023-05-15T20:00:15.380Z,7.37
2023-05-15T20:02:44.483Z,7.43
2023-05-15T20:05:12.122Z,6.73
2023-05-15T20:07:39.741Z,7.50
2023-05-15T20:10:08.273Z,6.90
2023-05-15T20:12:36.124Z,7.43
2023-05-15T20:15:03.675Z,6.40
2023-05-15T20:17:31.073Z,6.70
2023-05-15T20:20:00.022Z,6.53
2023-05-15T20:22:27.529Z,6.30
2023-05-15T20:24:55.120Z,6.70
2023-05-15T20:27:22.677Z,6.17
2023-05-15T20:29:50.080Z,5.97
2023-05-15T20:32:17.551Z,5.87
2023-05-15T20:34:45.873Z,6.53
2023-05-15T20:37:14.797Z,5.43
2023-05-15T20:39:42.627Z,5.70
2023-05-15T20:42:10.126Z,5.37
2023-05-15T20:44:39.175Z,5.17
2023-05-15T20:47:06.850Z,5.43
2023-05-15T20:49:34.310Z,5.30
2023-05-15T20:52:01.753Z,5.03
2023-05-15T20:54:30.544Z,5.63
2023-05-15T20:56:58.086Z,5.60
2023-05-15T20:59:25.558Z,5.43
2023-05-15T21:01:52.990Z,5.37
2023-05-15T21:04:20.531Z,5.23
2023-05-15T21:06:48.001Z,4.97
2023-05-15T21:09:15.792Z,5.10
2023-05-15T21:11:46.823Z,4.87
2023-05-15T21:14:14.264Z,5.07
2023-05-15T21:16:41.749Z,5.37
2023-05-15T21:19:09.410Z,4.90
2023-05-15T21:21:36.937Z,5.20
2023-05-15T21:24:04.588Z,5.33
2023-05-15T21:26:32.051Z,5.10
2023-05-15T21:29:01.274Z,5.30
2023-05-15T21:31:28.822Z,4.70
2023-05-15T21:33:56.308Z,4.47
2023-05-15T21:36:23.861Z,4.47
2023-05-15T21:38:51.405Z,4.70
2023-05-15T21:41:18.785Z,4.50
2023-05-15T21:43:46.256Z,5.07
2023-05-15T21:46:15.136Z,4.70
2023-05-15T21:48:42.599Z,4.27
2023-05-15T21:51:10.051Z,4.30
2023-05-15T21:53:37.515Z,3.90
2023-05-15T21:56:05.307Z,4.57
2023-05-15T21:58:32.998Z,3.63
2023-05-15T22:01:00.548Z,4.17
2023-05-15T22:03:29.423Z,3.83
2023-05-15T22:05:57.034Z,4.53
2023-05-15T22:08:24.509Z,4.60
2023-05-15T22:10:52.006Z,4.67
2023-05-15T22:13:19.492Z,4.13
2023-05-15T22:15:46.959Z,5.10
2023-05-15T22:18:14.823Z,4.60
2023-05-15T22:20:44.329Z,5.00
2023-05-15T22:23:11.920Z,4.70
2023-05-15T22:25:39.301Z,4.70
2023-05-15T22:28:06.773Z,4.77
2023-05-15T22:30:34.175Z,4.30
2023-05-15T22:33:01.847Z,4.27
2023-05-15T22:35:29.533Z,4.47
2023-05-15T22:37:58.400Z,4.73
2023-05-15T22:40:26.444Z,4.50
2023-05-15T22:42:54.145Z,4.30
2023-05-15T22:45:21.636Z,4.73
2023-05-15T22:47:49.491Z,4.60
2023-05-15T22:50:17.015Z,5.20
2023-05-15T22:52:44.450Z,5.10
2023-05-15T22:55:13.714Z,6.03
2023-05-15T22:57:41.099Z,6.03
2023-05-15T23:00:10.659Z,5.73
2023-05-15T23:02:38.608Z,5.30
2023-05-15T23:05:06.449Z,5.17
2023-05-15T23:07:33.967Z,5.30
2023-05-15T23:10:01.722Z,5.23
2023-05-15T23:12:30.856Z,5.33
2023-05-15T23:14:58.264Z,5.50
2023-05-15T23:17:26.601Z,6.40
2023-05-15T23:19:54.200Z,5.40
2023-05-15T23:22:21.607Z,5.60
2023-05-15T23:24:49.022Z,5.40
2023-05-15T23:27:16.482Z,5.47
2023-05-15T23:29:45.298Z,6.10
2023-05-15T23:32:13.162Z,6.93
2023-05-15T23:34:40.621Z,6.17
2023-05-15T23:37:08.199Z,5.40
2023-05-15T23:39:36.106Z,5.40
2023-05-15T23:42:03.781Z,4.93
2023-05-15T23:44:31.360Z,5.30
2023-05-15T23:47:00.461Z,4.70
2023-05-15T23:49:28.006Z,5.20
2023-05-15T23:51:55.430Z,5.33
2023-05-15T23:54:22.911Z,5.33
2023-05-15T23:56:50.307Z,5.77
2023-05-15T23:59:17.953Z,5.60
